Latest Weather Observations for Inner Beacon

IDQ60901

Issued at 6:21 am EST Friday 22 October 2021 (issued every 10 minutes, with the page automatically refreshed every 10 minutes)

About weather observations | Map of Brisbane area stations | Latest observations for Brisbane area | Other Formats
Station Details ID: 040926 Name: INNER RECIPROCAL MARKER Lat: -27.26 Lon: 153.24 Height: 10.0 m
Data from the previous 72 hours. | See also: Recent months at Inner Beacon
Date/Time
EST
Temp
°C
App
Temp
°C
Dew
Point
°C
Rel
Hum
%
Delta-T
°C
Wind Press
QNH
hPa
Press
MSL
hPa
Rain since
9am
mm
Dir  Spd
km/h
Gust
km/h
Spd
kts
Gust
kts
22/06:00am - - - - - NNE 17 19 9 10 - - -
22/05:30am - - - - - NNE 19 20 10 11 - - -
22/05:00am - - - - - NNE 17 19 9 10 - - -
22/04:30am - - - - - NNE 19 22 10 12 - - -
22/04:00am - - - - - NNE 20 24 11 13 - - -
22/03:30am - - - - - NNE 20 24 11 13 - - -
22/03:00am - - - - - NNE 20 24 11 13 - - -
22/02:30am - - - - - NE 19 24 10 13 - - -
22/02:00am - - - - - NE 17 20 9 11 - - -
22/01:30am - - - - - NE 20 24 11 13 - - -
22/01:00am - - - - - NE 20 24 11 13 - - -
22/12:30am - - - - - NE 19 20 10 11 - - -
22/12:00am - - - - - ENE 17 20 9 11 - - -
 
Date/Time
EST
Temp
°C
App
Temp
°C
Dew
Point
°C
Rel
Hum
%
Delta-T
°C
Wind Press
QNH
hPa
Press
MSL
hPa
Rain since
9am
mm
Dir  Spd
km/h
Gust
km/h
Spd
kts
Gust
kts
21/11:30pm - - - - - ENE 20 24 11 13 - - -
21/11:00pm - - - - - NE 19 22 10 12 - - -
21/10:30pm - - - - - ENE 17 20 9 11 - - -
21/10:00pm - - - - - NNE 13 15 7 8 - - -
21/09:30pm - - - - - NE 19 24 10 13 - - -
21/09:00pm - - - - - NE 20 24 11 13 - - -
21/08:30pm - - - - - NE 22 26 12 14 - - -
21/08:00pm - - - - - ENE 22 26 12 14 - - -
21/07:30pm - - - - - E 19 24 10 13 - - -
21/07:00pm - - - - - E 15 20 8 11 - - -
21/06:30pm - - - - - ENE 17 24 9 13 - - -
21/06:00pm - - - - - ENE 20 24 11 13 - - -
21/05:30pm - - - - - ENE 30 35 16 19 - - -
21/05:00pm - - - - - ENE 28 33 15 18 - - -
21/04:30pm - - - - - ENE 22 28 12 15 - - -
21/04:00pm - - - - - ENE 26 32 14 17 - - -
21/03:30pm - - - - - ENE 28 33 15 18 - - -
21/03:00pm - - - - - E 20 26 11 14 - - -
21/02:30pm - - - - - E 24 32 13 17 - - -
21/02:00pm - - - - - E 20 28 11 15 - - -
21/01:30pm - - - - - E 22 30 12 16 - - -
21/01:00pm - - - - - NE 26 33 14 18 - - -
21/12:30pm - - - - - NNE 24 30 13 16 - - -
21/12:00pm - - - - - NNE 24 28 13 15 - - -
21/11:30am - - - - - N 26 30 14 16 - - -
21/11:00am - - - - - N 20 24 11 13 - - -
21/10:30am - - - - - N 19 22 10 12 - - -
21/10:00am - - - - - NNE 19 22 10 12 - - -
21/09:30am - - - - - NNE 19 22 10 12 - - -
21/09:00am - - - - - NE 17 19 9 10 - - -
21/08:30am - - - - - NE 20 24 11 13 - - -
21/08:00am - - - - - NNE 17 22 9 12 - - -
21/07:30am - - - - - SSE 11 13 6 7 - - -
21/07:00am - - - - - SSE 13 15 7 8 - - -
21/06:30am - - - - - SSE 11 15 6 8 - - -
21/06:00am - - - - - SSE 7 9 4 5 - - -
21/05:30am - - - - - SE 7 9 4 5 - - -
21/05:00am - - - - - ESE 9 13 5 7 - - -
21/04:30am - - - - - SE 15 20 8 11 - - -
21/04:00am - - - - - SE 19 20 10 11 - - -
21/03:30am - - - - - SE 20 26 11 14 - - -
21/03:00am - - - - - SE 22 24 12 13 - - -
21/02:30am - - - - - SE 24 26 13 14 - - -
21/02:00am - - - - - SE 22 26 12 14 - - -
21/01:30am - - - - - SSE 17 20 9 11 - - -
21/01:00am - - - - - ESE 17 20 9 11 - - -
21/12:30am - - - - - SE 17 20 9 11 - - -
21/12:00am - - - - - ESE 7 13 4 7 - - -
 
Date/Time
EST
Temp
°C
App
Temp
°C
Dew
Point
°C
Rel
Hum
%
Delta-T
°C
Wind Press
QNH
hPa
Press
MSL
hPa
Rain since
9am
mm
Dir  Spd
km/h
Gust
km/h
Spd
kts
Gust
kts
20/11:30pm - - - - - ENE 17 20 9 11 - - -
20/11:00pm - - - - - NE 19 22 10 12 - - -
20/10:30pm - - - - - ENE 22 28 12 15 - - -
20/10:00pm - - - - - E 17 22 9 12 - - -
20/09:30pm - - - - - ESE 24 35 13 19 - - -
20/09:00pm - - - - - SSE 17 30 9 16 - - -
20/08:30pm - - - - - ESE 7 11 4 6 - - -
20/08:00pm - - - - - E 11 15 6 8 - - -
20/07:30pm - - - - - E 9 13 5 7 - - -
20/07:00pm - - - - - ENE 17 19 9 10 - - -
20/06:30pm - - - - - NE 22 26 12 14 - - -
20/06:00pm - - - - - NNE 26 30 14 16 - - -
20/05:30pm - - - - - NNE 32 35 17 19 - - -
20/05:00pm - - - - - N 26 30 14 16 - - -
20/04:30pm - - - - - N 26 30 14 16 - - -
20/04:00pm - - - - - NNE 28 32 15 17 - - -
20/03:30pm - - - - - NNE 22 28 12 15 - - -
20/03:00pm - - - - - NE 24 30 13 16 - - -
20/02:30pm - - - - - ENE 24 28 13 15 - - -
20/02:00pm - - - - - NNE 24 28 13 15 - - -
20/01:30pm - - - - - NNE 17 22 9 12 - - -
20/01:00pm - - - - - ENE 11 17 6 9 - - -
20/12:30pm - - - - - E 13 17 7 9 - - -
20/12:00pm - - - - - E 15 19 8 10 - - -
20/11:30am - - - - - E 17 19 9 10 - - -
20/11:00am - - - - - E 11 17 6 9 - - -
20/10:30am - - - - - E 9 13 5 7 - - -
20/10:00am - - - - - SE 13 17 7 9 - - -
20/09:30am - - - - - SSE 20 22 11 12 - - -
20/09:00am - - - - - SSE 26 28 14 15 - - -
20/08:30am - - - - - SSE 26 30 14 16 - - -
20/08:00am - - - - - SSE 19 24 10 13 - - -
20/07:30am - - - - - SSW 13 17 7 9 - - -
20/07:00am - - - - - SW 15 17 8 9 - - -
20/06:30am - - - - - WSW 4 4 2 2 - - -
20/06:00am - - - - - W 6 9 3 5 - - -
20/05:30am - - - - - NW 9 11 5 6 - - -
20/05:00am - - - - - WNW 7 9 4 5 - - -
20/04:30am - - - - - CALM 0 0 0 0 - - -
20/04:00am - - - - - W 2 6 1 3 - - -
20/03:30am - - - - - CALM 0 0 0 0 - - -
20/03:00am - - - - - WSW 2 4 1 2 - - -
20/02:30am - - - - - WNW 6 7 3 4 - - -
20/02:00am - - - - - ESE 4 6 2 3 - - -
20/01:30am - - - - - SSE 19 22 10 12 - - -
20/01:00am - - - - - S 24 28 13 15 - - -
20/12:30am - - - - - SSW 11 15 6 8 - - -
20/12:00am - - - - - CALM 0 0 0 0 - - -
 
Date/Time
EST
Temp
°C
App
Temp
°C
Dew
Point
°C
Rel
Hum
%
Delta-T
°C
Wind Press
QNH
hPa
Press
MSL
hPa
Rain since
9am
mm
Dir  Spd
km/h
Gust
km/h
Spd
kts
Gust
kts
19/11:30pm - - - - - NNW 7 9 4 5 - - -
19/11:00pm - - - - - NW 7 11 4 6 - - -
19/10:30pm - - - - - NW 6 7 3 4 - - -
19/10:00pm - - - - - NNW 9 13 5 7 - - -
19/09:30pm - - - - - N 15 17 8 9 - - -
19/09:00pm - - - - - N 17 19 9 10 - - -
19/08:30pm - - - - - N 7 13 4 7 - - -
19/08:00pm - - - - - NNE 7 7 4 4 - - -
19/07:30pm - - - - - NE 4 6 2 3 - - -
19/07:00pm - - - - - NE 9 11 5 6 - - -
19/06:30pm - - - - - ENE 13 17 7 9 - - -
19/06:00pm - - - - - E 13 15 7 8 - - -
19/05:30pm - - - - - N 11 13 6 7 - - -
19/05:00pm - - - - - NNE 15 17 8 9 - - -
19/04:30pm - - - - - NNE 11 13 6 7 - - -
19/04:00pm - - - - - ENE 13 15 7 8 - - -
19/03:30pm - - - - - E 11 15 6 8 - - -
19/03:00pm - - - - - ENE 15 17 8 9 - - -
19/02:30pm - - - - - ENE 15 15 8 8 - - -
19/02:00pm - - - - - ENE 13 15 7 8 - - -
19/01:30pm - - - - - ENE 15 17 8 9 - - -
19/01:00pm - - - - - ENE 11 13 6 7 - - -
19/12:30pm - - - - - ENE 6 7 3 4 - - -
19/12:00pm - - - - - ENE 4 6 2 3 - - -
19/11:30am - - - - - CALM 0 6 0 3 - - -
19/11:00am - - - - - SW 4 6 2 3 - - -
19/10:30am - - - - - CALM 0 0 0 0 - - -
19/10:00am - - - - - S 4 7 2 4 - - -
19/09:30am - - - - - S 11 15 6 8 - - -
19/09:00am - - - - - SSW 13 15 7 8 - - -
19/08:30am - - - - - S 13 17 7 9 - - -
19/08:00am - - - - - SSW 15 19 8 10 - - -
19/07:30am - - - - - SSW 19 22 10 12 - - -
19/07:00am - - - - - SW 19 22 10 12 - - -
19/06:30am - - - - - SSW 19 22 10 12 - - -

Latest Capital City Observations: Canberra | Sydney | Melbourne | Brisbane | Adelaide | Perth | Hobart | Darwin

Other formats

Comma delimited format used in spreadsheet applications
http://www.bom.gov.au/fwo/IDQ60901/IDQ60901.94590.axf

JavaScript Object Notation format (JSON) in row-major order
http://www.bom.gov.au/fwo/IDQ60901/IDQ60901.94590.json

Data quality

Most of these data are generated automatically and are frequently updated. Quality checks on data are not normally performed. It is possible for incorrect values to appear. Refer to information at About Latest Weather Observations and please check the disclaimer before using these data.